sensor_id;sensor_type;location;lat;lon;timestamp;P1;durP1;ratioP1;P2;durP2;ratioP2
23270;SDS011;11804;51.118;17.058;2022-12-07T00:01:44;24.37;;;15.93;;
23270;SDS011;11804;51.118;17.058;2022-12-07T00:04:13;23.00;;;15.30;;
23270;SDS011;11804;51.118;17.058;2022-12-07T00:06:44;21.97;;;14.33;;
23270;SDS011;11804;51.118;17.058;2022-12-07T00:09:17;19.80;;;13.67;;
23270;SDS011;11804;51.118;17.058;2022-12-07T00:11:49;19.43;;;12.73;;
23270;SDS011;11804;51.118;17.058;2022-12-07T00:14:18;16.67;;;11.87;;
23270;SDS011;11804;51.118;17.058;2022-12-07T00:16:46;17.90;;;12.10;;
23270;SDS011;11804;51.118;17.058;2022-12-07T00:19:18;18.10;;;11.67;;
23270;SDS011;11804;51.118;17.058;2022-12-07T00:21:45;17.43;;;11.67;;
23270;SDS011;11804;51.118;17.058;2022-12-07T00:24:13;14.93;;;11.03;;
23270;SDS011;11804;51.118;17.058;2022-12-07T00:26:42;16.33;;;10.80;;
23270;SDS011;11804;51.118;17.058;2022-12-07T00:29:20;16.03;;;11.07;;
23270;SDS011;11804;51.118;17.058;2022-12-07T00:31:51;15.20;;;10.33;;
23270;SDS011;11804;51.118;17.058;2022-12-07T00:34:21;15.63;;;10.27;;
23270;SDS011;11804;51.118;17.058;2022-12-07T00:36:49;14.37;;;9.83;;
23270;SDS011;11804;51.118;17.058;2022-12-07T00:39:17;13.33;;;9.30;;
23270;SDS011;11804;51.118;17.058;2022-12-07T00:41:45;13.97;;;9.47;;
23270;SDS011;11804;51.118;17.058;2022-12-07T00:44:12;14.03;;;9.73;;
23270;SDS011;11804;51.118;17.058;2022-12-07T00:46:43;13.20;;;8.90;;
23270;SDS011;11804;51.118;17.058;2022-12-07T00:49:11;15.03;;;9.77;;
23270;SDS011;11804;51.118;17.058;2022-12-07T00:51:40;14.77;;;8.67;;
23270;SDS011;11804;51.118;17.058;2022-12-07T00:54:08;12.83;;;8.17;;
23270;SDS011;11804;51.118;17.058;2022-12-07T00:56:36;12.33;;;9.03;;
23270;SDS011;11804;51.118;17.058;2022-12-07T00:59:03;13.40;;;9.70;;
23270;SDS011;11804;51.118;17.058;2022-12-07T01:01:32;13.67;;;9.70;;
23270;SDS011;11804;51.118;17.058;2022-12-07T01:04:08;11.67;;;8.30;;
23270;SDS011;11804;51.118;17.058;2022-12-07T01:06:31;10.10;;;7.13;;
23270;SDS011;11804;51.118;17.058;2022-12-07T01:09:00;9.00;;;6.40;;
23270;SDS011;11804;51.118;17.058;2022-12-07T01:11:29;10.70;;;6.47;;
23270;SDS011;11804;51.118;17.058;2022-12-07T01:13:58;9.77;;;6.67;;
23270;SDS011;11804;51.118;17.058;2022-12-07T01:16:34;8.03;;;5.40;;
23270;SDS011;11804;51.118;17.058;2022-12-07T01:19:01;7.87;;;5.70;;
23270;SDS011;11804;51.118;17.058;2022-12-07T01:21:31;11.93;;;7.80;;
23270;SDS011;11804;51.118;17.058;2022-12-07T01:24:03;8.37;;;5.83;;
23270;SDS011;11804;51.118;17.058;2022-12-07T01:26:32;8.33;;;6.07;;
23270;SDS011;11804;51.118;17.058;2022-12-07T01:29:00;8.27;;;4.73;;
23270;SDS011;11804;51.118;17.058;2022-12-07T01:31:28;13.67;;;6.23;;
23270;SDS011;11804;51.118;17.058;2022-12-07T01:33:58;9.93;;;5.07;;
23270;SDS011;11804;51.118;17.058;2022-12-07T01:36:32;6.50;;;4.70;;
23270;SDS011;11804;51.118;17.058;2022-12-07T01:39:02;5.70;;;4.43;;
23270;SDS011;11804;51.118;17.058;2022-12-07T01:41:33;8.63;;;5.40;;
23270;SDS011;11804;51.118;17.058;2022-12-07T01:44:11;8.60;;;5.60;;
23270;SDS011;11804;51.118;17.058;2022-12-07T01:46:41;7.60;;;4.80;;
23270;SDS011;11804;51.118;17.058;2022-12-07T01:49:17;5.50;;;4.10;;
23270;SDS011;11804;51.118;17.058;2022-12-07T01:51:43;7.60;;;4.80;;
23270;SDS011;11804;51.118;17.058;2022-12-07T01:54:13;6.63;;;4.83;;
23270;SDS011;11804;51.118;17.058;2022-12-07T01:56:44;8.10;;;5.33;;
23270;SDS011;11804;51.118;17.058;2022-12-07T01:59:13;8.07;;;5.30;;
23270;SDS011;11804;51.118;17.058;2022-12-07T02:01:43;6.73;;;4.60;;
23270;SDS011;11804;51.118;17.058;2022-12-07T02:04:11;5.43;;;4.10;;
23270;SDS011;11804;51.118;17.058;2022-12-07T02:06:39;6.87;;;4.90;;
23270;SDS011;11804;51.118;17.058;2022-12-07T02:09:09;5.77;;;4.50;;
23270;SDS011;11804;51.118;17.058;2022-12-07T02:11:38;5.93;;;4.13;;
23270;SDS011;11804;51.118;17.058;2022-12-07T02:14:06;6.03;;;4.00;;
23270;SDS011;11804;51.118;17.058;2022-12-07T02:16:46;6.37;;;4.13;;
23270;SDS011;11804;51.118;17.058;2022-12-07T02:24:56;6.17;;;3.90;;
23270;SDS011;11804;51.118;17.058;2022-12-07T02:27:43;5.47;;;3.50;;
23270;SDS011;11804;51.118;17.058;2022-12-07T02:30:28;4.20;;;3.50;;
23270;SDS011;11804;51.118;17.058;2022-12-07T02:33:03;5.30;;;4.30;;
23270;SDS011;11804;51.118;17.058;2022-12-07T02:35:44;6.87;;;4.90;;
23270;SDS011;11804;51.118;17.058;2022-12-07T02:38:22;4.83;;;3.87;;
23270;SDS011;11804;51.118;17.058;2022-12-07T02:41:07;5.23;;;3.90;;
23270;SDS011;11804;51.118;17.058;2022-12-07T02:43:46;7.07;;;5.23;;
23270;SDS011;11804;51.118;17.058;2022-12-07T02:46:27;5.03;;;3.93;;
23270;SDS011;11804;51.118;17.058;2022-12-07T02:48:52;5.60;;;4.03;;
23270;SDS011;11804;51.118;17.058;2022-12-07T02:51:22;6.10;;;4.63;;
23270;SDS011;11804;51.118;17.058;2022-12-07T02:53:52;6.80;;;5.00;;
23270;SDS011;11804;51.118;17.058;2022-12-07T02:56:30;7.03;;;4.80;;
23270;SDS011;11804;51.118;17.058;2022-12-07T03:07:24;5.63;;;4.73;;
23270;SDS011;11804;51.118;17.058;2022-12-07T03:10:00;5.53;;;4.43;;
23270;SDS011;11804;51.118;17.058;2022-12-07T03:12:32;6.70;;;4.73;;
23270;SDS011;11804;51.118;17.058;2022-12-07T03:17:50;7.80;;;5.97;;
23270;SDS011;11804;51.118;17.058;2022-12-07T03:20:21;7.63;;;6.00;;
23270;SDS011;11804;51.118;17.058;2022-12-07T03:22:55;7.60;;;5.67;;
23270;SDS011;11804;51.118;17.058;2022-12-07T03:25:21;9.60;;;7.13;;
23270;SDS011;11804;51.118;17.058;2022-12-07T03:27:58;9.83;;;7.97;;
23270;SDS011;11804;51.118;17.058;2022-12-07T03:30:27;9.20;;;7.20;;
23270;SDS011;11804;51.118;17.058;2022-12-07T03:33:08;8.27;;;6.57;;
23270;SDS011;11804;51.118;17.058;2022-12-07T03:36:00;8.73;;;6.80;;
23270;SDS011;11804;51.118;17.058;2022-12-07T03:38:44;9.37;;;7.30;;
23270;SDS011;11804;51.118;17.058;2022-12-07T03:41:09;8.23;;;6.83;;
23270;SDS011;11804;51.118;17.058;2022-12-07T03:43:46;10.33;;;7.10;;
23270;SDS011;11804;51.118;17.058;2022-12-07T03:49:20;8.00;;;6.90;;
23270;SDS011;11804;51.118;17.058;2022-12-07T03:54:39;7.37;;;6.00;;
23270;SDS011;11804;51.118;17.058;2022-12-07T03:57:16;8.50;;;6.43;;
23270;SDS011;11804;51.118;17.058;2022-12-07T03:59:45;8.33;;;6.23;;
23270;SDS011;11804;51.118;17.058;2022-12-07T04:02:14;8.17;;;6.17;;
23270;SDS011;11804;51.118;17.058;2022-12-07T04:04:44;7.53;;;6.50;;
23270;SDS011;11804;51.118;17.058;2022-12-07T04:07:13;7.50;;;6.27;;
23270;SDS011;11804;51.118;17.058;2022-12-07T04:09:56;6.60;;;5.17;;
23270;SDS011;11804;51.118;17.058;2022-12-07T04:12:28;5.33;;;4.50;;
23270;SDS011;11804;51.118;17.058;2022-12-07T04:14:56;5.70;;;4.83;;
23270;SDS011;11804;51.118;17.058;2022-12-07T04:17:35;5.97;;;4.60;;
23270;SDS011;11804;51.118;17.058;2022-12-07T04:19:58;5.37;;;4.47;;
23270;SDS011;11804;51.118;17.058;2022-12-07T04:22:27;4.97;;;3.60;;
23270;SDS011;11804;51.118;17.058;2022-12-07T04:25:03;4.40;;;3.67;;
23270;SDS011;11804;51.118;17.058;2022-12-07T04:27:27;4.87;;;3.50;;
23270;SDS011;11804;51.118;17.058;2022-12-07T04:29:55;4.40;;;3.60;;
23270;SDS011;11804;51.118;17.058;2022-12-07T04:32:23;5.60;;;3.37;;
23270;SDS011;11804;51.118;17.058;2022-12-07T04:34:58;6.07;;;3.47;;
23270;SDS011;11804;51.118;17.058;2022-12-07T04:37:31;3.60;;;3.17;;
23270;SDS011;11804;51.118;17.058;2022-12-07T04:40:00;4.67;;;2.83;;
23270;SDS011;11804;51.118;17.058;2022-12-07T04:42:27;4.40;;;3.20;;
23270;SDS011;11804;51.118;17.058;2022-12-07T04:44:55;5.20;;;2.90;;
23270;SDS011;11804;51.118;17.058;2022-12-07T04:47:23;3.17;;;2.80;;
23270;SDS011;11804;51.118;17.058;2022-12-07T04:50:00;5.17;;;2.67;;
23270;SDS011;11804;51.118;17.058;2022-12-07T04:52:29;4.20;;;2.87;;
23270;SDS011;11804;51.118;17.058;2022-12-07T04:54:56;5.03;;;3.20;;
23270;SDS011;11804;51.118;17.058;2022-12-07T04:57:24;3.70;;;2.97;;
23270;SDS011;11804;51.118;17.058;2022-12-07T04:59:52;3.70;;;3.10;;
23270;SDS011;11804;51.118;17.058;2022-12-07T05:02:22;4.10;;;3.40;;
23270;SDS011;11804;51.118;17.058;2022-12-07T05:04:50;5.30;;;3.37;;
23270;SDS011;11804;51.118;17.058;2022-12-07T05:07:18;4.80;;;3.30;;
23270;SDS011;11804;51.118;17.058;2022-12-07T05:09:45;4.73;;;3.43;;
23270;SDS011;11804;51.118;17.058;2022-12-07T05:12:13;5.40;;;4.30;;
23270;SDS011;11804;51.118;17.058;2022-12-07T05:14:47;5.87;;;3.97;;
23270;SDS011;11804;51.118;17.058;2022-12-07T05:17:17;4.73;;;4.03;;
23270;SDS011;11804;51.118;17.058;2022-12-07T05:19:45;6.80;;;4.50;;
23270;SDS011;11804;51.118;17.058;2022-12-07T05:22:20;5.77;;;4.03;;
23270;SDS011;11804;51.118;17.058;2022-12-07T05:24:48;11.73;;;8.93;;
23270;SDS011;11804;51.118;17.058;2022-12-07T05:27:15;7.43;;;4.70;;
23270;SDS011;11804;51.118;17.058;2022-12-07T05:29:43;7.83;;;5.00;;
23270;SDS011;11804;51.118;17.058;2022-12-07T05:32:24;9.67;;;5.83;;
23270;SDS011;11804;51.118;17.058;2022-12-07T05:34:48;10.20;;;6.40;;
23270;SDS011;11804;51.118;17.058;2022-12-07T05:37:22;10.20;;;6.60;;
23270;SDS011;11804;51.118;17.058;2022-12-07T05:39:47;13.43;;;8.30;;
23270;SDS011;11804;51.118;17.058;2022-12-07T05:42:19;11.67;;;7.33;;
23270;SDS011;11804;51.118;17.058;2022-12-07T05:44:50;12.37;;;7.83;;
23270;SDS011;11804;51.118;17.058;2022-12-07T05:47:17;11.30;;;7.67;;
23270;SDS011;11804;51.118;17.058;2022-12-07T05:49:45;13.77;;;8.73;;
23270;SDS011;11804;51.118;17.058;2022-12-07T05:52:13;15.07;;;9.57;;
23270;SDS011;11804;51.118;17.058;2022-12-07T05:54:45;15.43;;;10.30;;
23270;SDS011;11804;51.118;17.058;2022-12-07T05:57:15;17.00;;;10.43;;
23270;SDS011;11804;51.118;17.058;2022-12-07T05:59:42;17.40;;;11.17;;
23270;SDS011;11804;51.118;17.058;2022-12-07T06:02:12;19.20;;;11.83;;
23270;SDS011;11804;51.118;17.058;2022-12-07T06:04:49;16.60;;;10.50;;
23270;SDS011;11804;51.118;17.058;2022-12-07T06:07:17;19.23;;;11.97;;
23270;SDS011;11804;51.118;17.058;2022-12-07T06:09:59;18.87;;;11.30;;
23270;SDS011;11804;51.118;17.058;2022-12-07T06:12:27;19.93;;;12.23;;
23270;SDS011;11804;51.118;17.058;2022-12-07T06:15:01;22.27;;;12.93;;
23270;SDS011;11804;51.118;17.058;2022-12-07T06:17:28;20.03;;;12.70;;
23270;SDS011;11804;51.118;17.058;2022-12-07T06:19:59;20.20;;;12.37;;
23270;SDS011;11804;51.118;17.058;2022-12-07T06:22:30;22.90;;;12.87;;
23270;SDS011;11804;51.118;17.058;2022-12-07T06:24:57;21.33;;;12.77;;
23270;SDS011;11804;51.118;17.058;2022-12-07T06:27:25;21.67;;;13.40;;
23270;SDS011;11804;51.118;17.058;2022-12-07T06:29:53;23.23;;;13.77;;
23270;SDS011;11804;51.118;17.058;2022-12-07T06:32:20;21.83;;;13.50;;
23270;SDS011;11804;51.118;17.058;2022-12-07T06:34:50;22.40;;;13.57;;
23270;SDS011;11804;51.118;17.058;2022-12-07T06:37:22;24.63;;;14.60;;
23270;SDS011;11804;51.118;17.058;2022-12-07T06:39:50;22.60;;;13.00;;
23270;SDS011;11804;51.118;17.058;2022-12-07T06:42:18;25.63;;;15.30;;
23270;SDS011;11804;51.118;17.058;2022-12-07T06:44:46;22.70;;;14.57;;
23270;SDS011;11804;51.118;17.058;2022-12-07T06:47:15;24.63;;;14.23;;
23270;SDS011;11804;51.118;17.058;2022-12-07T06:49:42;24.47;;;14.77;;
23270;SDS011;11804;51.118;17.058;2022-12-07T06:52:11;25.67;;;14.40;;
23270;SDS011;11804;51.118;17.058;2022-12-07T06:54:39;23.47;;;14.13;;
23270;SDS011;11804;51.118;17.058;2022-12-07T06:57:09;22.67;;;13.17;;
23270;SDS011;11804;51.118;17.058;2022-12-07T06:59:45;23.90;;;13.67;;
23270;SDS011;11804;51.118;17.058;2022-12-07T07:02:11;22.23;;;13.40;;
23270;SDS011;11804;51.118;17.058;2022-12-07T07:04:47;21.93;;;13.00;;
23270;SDS011;11804;51.118;17.058;2022-12-07T07:07:22;25.30;;;13.07;;
23270;SDS011;11804;51.118;17.058;2022-12-07T07:09:54;20.83;;;12.80;;
23270;SDS011;11804;51.118;17.058;2022-12-07T07:12:21;22.83;;;14.00;;
23270;SDS011;11804;51.118;17.058;2022-12-07T07:14:51;23.73;;;13.73;;
23270;SDS011;11804;51.118;17.058;2022-12-07T07:17:18;22.87;;;14.13;;
23270;SDS011;11804;51.118;17.058;2022-12-07T07:19:49;22.87;;;13.53;;
23270;SDS011;11804;51.118;17.058;2022-12-07T07:22:18;22.00;;;13.17;;
23270;SDS011;11804;51.118;17.058;2022-12-07T07:24:50;23.23;;;13.73;;
23270;SDS011;11804;51.118;17.058;2022-12-07T07:27:21;21.30;;;12.57;;
23270;SDS011;11804;51.118;17.058;2022-12-07T07:29:49;20.10;;;12.00;;
23270;SDS011;11804;51.118;17.058;2022-12-07T07:32:17;18.47;;;11.97;;
23270;SDS011;11804;51.118;17.058;2022-12-07T07:35:00;19.23;;;12.70;;
23270;SDS011;11804;51.118;17.058;2022-12-07T07:37:22;19.30;;;13.17;;
23270;SDS011;11804;51.118;17.058;2022-12-07T07:39:50;21.53;;;12.30;;
23270;SDS011;11804;51.118;17.058;2022-12-07T07:42:18;21.87;;;13.37;;
23270;SDS011;11804;51.118;17.058;2022-12-07T07:44:45;20.67;;;12.47;;
23270;SDS011;11804;51.118;17.058;2022-12-07T07:47:13;19.07;;;12.70;;
23270;SDS011;11804;51.118;17.058;2022-12-07T07:49:44;19.43;;;13.17;;
23270;SDS011;11804;51.118;17.058;2022-12-07T07:52:14;21.80;;;13.17;;
23270;SDS011;11804;51.118;17.058;2022-12-07T07:54:51;20.13;;;12.80;;
23270;SDS011;11804;51.118;17.058;2022-12-07T07:57:15;19.27;;;11.77;;
23270;SDS011;11804;51.118;17.058;2022-12-07T07:59:44;21.33;;;12.60;;
23270;SDS011;11804;51.118;17.058;2022-12-07T08:02:16;20.73;;;12.67;;
23270;SDS011;11804;51.118;17.058;2022-12-07T08:04:45;20.70;;;12.07;;
23270;SDS011;11804;51.118;17.058;2022-12-07T08:07:14;18.07;;;11.67;;
23270;SDS011;11804;51.118;17.058;2022-12-07T08:09:48;20.60;;;12.47;;
23270;SDS011;11804;51.118;17.058;2022-12-07T08:12:15;19.07;;;11.70;;
23270;SDS011;11804;51.118;17.058;2022-12-07T08:14:43;25.13;;;12.37;;
23270;SDS011;11804;51.118;17.058;2022-12-07T08:17:10;19.60;;;11.57;;
23270;SDS011;11804;51.118;17.058;2022-12-07T08:19:38;20.67;;;12.40;;
23270;SDS011;11804;51.118;17.058;2022-12-07T08:22:06;18.47;;;11.83;;
23270;SDS011;11804;51.118;17.058;2022-12-07T08:24:34;19.27;;;12.17;;
23270;SDS011;11804;51.118;17.058;2022-12-07T08:27:03;20.77;;;12.33;;
23270;SDS011;11804;51.118;17.058;2022-12-07T08:29:32;19.30;;;12.23;;
23270;SDS011;11804;51.118;17.058;2022-12-07T08:32:00;19.77;;;11.80;;
23270;SDS011;11804;51.118;17.058;2022-12-07T08:34:28;18.50;;;11.73;;
23270;SDS011;11804;51.118;17.058;2022-12-07T08:36:55;18.43;;;11.47;;
23270;SDS011;11804;51.118;17.058;2022-12-07T08:39:23;19.07;;;11.50;;
23270;SDS011;11804;51.118;17.058;2022-12-07T08:41:51;18.67;;;11.80;;
23270;SDS011;11804;51.118;17.058;2022-12-07T08:44:28;16.30;;;10.20;;
23270;SDS011;11804;51.118;17.058;2022-12-07T08:46:59;15.80;;;10.67;;
23270;SDS011;11804;51.118;17.058;2022-12-07T08:52:20;16.33;;;10.47;;
23270;SDS011;11804;51.118;17.058;2022-12-07T08:54:50;17.73;;;11.30;;
23270;SDS011;11804;51.118;17.058;2022-12-07T08:57:17;17.43;;;11.17;;
23270;SDS011;11804;51.118;17.058;2022-12-07T08:59:45;17.67;;;10.90;;
23270;SDS011;11804;51.118;17.058;2022-12-07T09:02:13;17.27;;;11.33;;
23270;SDS011;11804;51.118;17.058;2022-12-07T09:04:41;17.50;;;11.60;;
23270;SDS011;11804;51.118;17.058;2022-12-07T09:07:09;16.23;;;10.43;;
23270;SDS011;11804;51.118;17.058;2022-12-07T09:09:43;17.40;;;10.53;;
23270;SDS011;11804;51.118;17.058;2022-12-07T09:12:10;16.77;;;10.60;;
23270;SDS011;11804;51.118;17.058;2022-12-07T09:14:38;14.07;;;9.57;;
23270;SDS011;11804;51.118;17.058;2022-12-07T09:17:09;14.97;;;9.90;;
23270;SDS011;11804;51.118;17.058;2022-12-07T09:19:42;15.57;;;9.77;;
23270;SDS011;11804;51.118;17.058;2022-12-07T09:22:20;12.67;;;9.40;;
23270;SDS011;11804;51.118;17.058;2022-12-07T09:24:50;13.77;;;9.63;;
23270;SDS011;11804;51.118;17.058;2022-12-07T09:27:28;15.17;;;10.27;;
23270;SDS011;11804;51.118;17.058;2022-12-07T09:29:57;15.27;;;9.67;;
23270;SDS011;11804;51.118;17.058;2022-12-07T09:32:25;13.80;;;8.63;;
23270;SDS011;11804;51.118;17.058;2022-12-07T09:35:16;13.80;;;9.00;;
23270;SDS011;11804;51.118;17.058;2022-12-07T09:37:35;13.63;;;9.13;;
23270;SDS011;11804;51.118;17.058;2022-12-07T09:40:03;13.53;;;9.40;;
23270;SDS011;11804;51.118;17.058;2022-12-07T09:42:48;13.07;;;9.10;;
23270;SDS011;11804;51.118;17.058;2022-12-07T09:45:50;9.73;;;6.73;;
23270;SDS011;11804;51.118;17.058;2022-12-07T09:48:31;9.10;;;6.97;;
23270;SDS011;11804;51.118;17.058;2022-12-07T09:51:03;11.10;;;7.23;;
23270;SDS011;11804;51.118;17.058;2022-12-07T09:56:53;10.80;;;6.00;;
23270;SDS011;11804;51.118;17.058;2022-12-07T09:59:39;10.67;;;6.67;;
23270;SDS011;11804;51.118;17.058;2022-12-07T10:02:17;9.03;;;7.00;;
23270;SDS011;11804;51.118;17.058;2022-12-07T10:04:39;7.87;;;5.60;;
23270;SDS011;11804;51.118;17.058;2022-12-07T10:07:09;8.87;;;5.67;;
23270;SDS011;11804;51.118;17.058;2022-12-07T10:09:41;9.73;;;5.73;;
23270;SDS011;11804;51.118;17.058;2022-12-07T10:12:11;7.70;;;5.40;;
23270;SDS011;11804;51.118;17.058;2022-12-07T10:15:01;8.00;;;5.77;;
23270;SDS011;11804;51.118;17.058;2022-12-07T10:17:35;7.57;;;5.60;;
23270;SDS011;11804;51.118;17.058;2022-12-07T10:25:36;12.53;;;6.17;;
23270;SDS011;11804;51.118;17.058;2022-12-07T10:31:03;9.17;;;5.17;;
23270;SDS011;11804;51.118;17.058;2022-12-07T10:40:35;9.00;;;6.10;;
23270;SDS011;11804;51.118;17.058;2022-12-07T10:43:05;10.20;;;6.70;;
23270;SDS011;11804;51.118;17.058;2022-12-07T10:45:34;8.77;;;6.17;;
23270;SDS011;11804;51.118;17.058;2022-12-07T10:51:11;9.03;;;5.80;;
23270;SDS011;11804;51.118;17.058;2022-12-07T10:56:46;9.00;;;6.33;;
23270;SDS011;11804;51.118;17.058;2022-12-07T11:07:14;5.43;;;4.00;;
23270;SDS011;11804;51.118;17.058;2022-12-07T11:09:51;7.27;;;4.90;;
23270;SDS011;11804;51.118;17.058;2022-12-07T11:12:34;9.50;;;5.30;;
23270;SDS011;11804;51.118;17.058;2022-12-07T11:21:39;7.20;;;5.47;;
23270;SDS011;11804;51.118;17.058;2022-12-07T11:24:27;6.77;;;4.70;;
23270;SDS011;11804;51.118;17.058;2022-12-07T11:27:04;7.20;;;4.50;;
23270;SDS011;11804;51.118;17.058;2022-12-07T11:49:08;5.93;;;4.60;;
23270;SDS011;11804;51.118;17.058;2022-12-07T11:51:52;7.37;;;4.90;;
23270;SDS011;11804;51.118;17.058;2022-12-07T11:54:23;6.37;;;4.53;;
23270;SDS011;11804;51.118;17.058;2022-12-07T11:57:00;8.97;;;4.70;;
23270;SDS011;11804;51.118;17.058;2022-12-07T11:59:28;6.07;;;4.40;;
23270;SDS011;11804;51.118;17.058;2022-12-07T12:05:12;5.23;;;4.00;;
23270;SDS011;11804;51.118;17.058;2022-12-07T12:10:45;6.10;;;4.50;;
23270;SDS011;11804;51.118;17.058;2022-12-07T12:29:06;8.97;;;5.73;;
23270;SDS011;11804;51.118;17.058;2022-12-07T12:31:40;11.00;;;6.03;;
23270;SDS011;11804;51.118;17.058;2022-12-07T12:37:00;10.60;;;6.23;;
23270;SDS011;11804;51.118;17.058;2022-12-07T12:42:47;11.77;;;7.03;;
23270;SDS011;11804;51.118;17.058;2022-12-07T12:45:26;9.27;;;6.30;;
23270;SDS011;11804;51.118;17.058;2022-12-07T12:48:27;7.67;;;5.37;;
23270;SDS011;11804;51.118;17.058;2022-12-07T12:51:35;6.07;;;4.63;;
23270;SDS011;11804;51.118;17.058;2022-12-07T12:56:27;7.97;;;5.33;;
23270;SDS011;11804;51.118;17.058;2022-12-07T12:59:22;8.53;;;5.80;;
23270;SDS011;11804;51.118;17.058;2022-12-07T13:15:41;7.37;;;5.10;;
23270;SDS011;11804;51.118;17.058;2022-12-07T13:31:42;16.27;;;5.70;;
23270;SDS011;11804;51.118;17.058;2022-12-07T13:34:39;9.30;;;5.90;;
23270;SDS011;11804;51.118;17.058;2022-12-07T13:40:09;11.20;;;5.63;;
23270;SDS011;11804;51.118;17.058;2022-12-07T13:42:45;11.20;;;6.50;;
23270;SDS011;11804;51.118;17.058;2022-12-07T13:45:25;15.60;;;6.47;;
23270;SDS011;11804;51.118;17.058;2022-12-07T13:48:33;11.60;;;6.30;;
23270;SDS011;11804;51.118;17.058;2022-12-07T13:51:27;9.73;;;6.00;;
23270;SDS011;11804;51.118;17.058;2022-12-07T13:54:09;14.50;;;6.90;;
23270;SDS011;11804;51.118;17.058;2022-12-07T13:56:51;8.47;;;5.97;;
23270;SDS011;11804;51.118;17.058;2022-12-07T13:59:21;8.67;;;6.20;;
23270;SDS011;11804;51.118;17.058;2022-12-07T14:05:09;10.20;;;6.10;;
23270;SDS011;11804;51.118;17.058;2022-12-07T14:07:54;11.00;;;6.47;;
23270;SDS011;11804;51.118;17.058;2022-12-07T14:13:03;9.70;;;5.83;;
23270;SDS011;11804;51.118;17.058;2022-12-07T14:15:33;9.07;;;5.97;;
23270;SDS011;11804;51.118;17.058;2022-12-07T14:18:24;8.57;;;5.93;;
23270;SDS011;11804;51.118;17.058;2022-12-07T14:20:43;10.70;;;5.47;;
23270;SDS011;11804;51.118;17.058;2022-12-07T14:23:24;7.43;;;5.37;;
23270;SDS011;11804;51.118;17.058;2022-12-07T14:25:53;10.73;;;6.10;;
23270;SDS011;11804;51.118;17.058;2022-12-07T14:28:30;10.20;;;6.43;;
23270;SDS011;11804;51.118;17.058;2022-12-07T14:31:04;7.37;;;5.77;;
23270;SDS011;11804;51.118;17.058;2022-12-07T14:33:54;9.67;;;7.37;;
23270;SDS011;11804;51.118;17.058;2022-12-07T14:36:31;9.90;;;6.00;;
23270;SDS011;11804;51.118;17.058;2022-12-07T14:38:58;9.87;;;5.40;;
23270;SDS011;11804;51.118;17.058;2022-12-07T14:41:26;13.83;;;6.67;;
23270;SDS011;11804;51.118;17.058;2022-12-07T14:44:11;11.90;;;6.07;;
23270;SDS011;11804;51.118;17.058;2022-12-07T14:46:41;10.90;;;5.63;;
23270;SDS011;11804;51.118;17.058;2022-12-07T14:51:55;12.70;;;5.97;;
23270;SDS011;11804;51.118;17.058;2022-12-07T14:57:00;8.40;;;6.00;;
23270;SDS011;11804;51.118;17.058;2022-12-07T14:59:38;13.03;;;5.87;;
23270;SDS011;11804;51.118;17.058;2022-12-07T15:02:12;9.40;;;5.60;;
23270;SDS011;11804;51.118;17.058;2022-12-07T15:07:31;14.13;;;6.27;;
23270;SDS011;11804;51.118;17.058;2022-12-07T15:10:03;8.37;;;5.73;;
23270;SDS011;11804;51.118;17.058;2022-12-07T15:12:34;11.07;;;7.00;;
23270;SDS011;11804;51.118;17.058;2022-12-07T15:17:40;10.80;;;5.87;;
23270;SDS011;11804;51.118;17.058;2022-12-07T15:20:13;11.97;;;7.53;;
23270;SDS011;11804;51.118;17.058;2022-12-07T15:22:47;10.23;;;6.43;;
23270;SDS011;11804;51.118;17.058;2022-12-07T15:25:15;12.70;;;6.80;;
23270;SDS011;11804;51.118;17.058;2022-12-07T15:27:46;15.33;;;6.17;;
23270;SDS011;11804;51.118;17.058;2022-12-07T15:30:20;11.20;;;6.17;;
23270;SDS011;11804;51.118;17.058;2022-12-07T15:32:51;17.93;;;8.97;;
23270;SDS011;11804;51.118;17.058;2022-12-07T15:38:05;11.37;;;7.63;;
23270;SDS011;11804;51.118;17.058;2022-12-07T15:40:25;11.13;;;6.87;;
23270;SDS011;11804;51.118;17.058;2022-12-07T15:43:15;38.30;;;15.47;;
23270;SDS011;11804;51.118;17.058;2022-12-07T15:48:35;11.77;;;6.90;;
23270;SDS011;11804;51.118;17.058;2022-12-07T15:51:16;9.93;;;6.70;;
23270;SDS011;11804;51.118;17.058;2022-12-07T15:53:53;15.47;;;6.50;;
23270;SDS011;11804;51.118;17.058;2022-12-07T15:56:20;12.33;;;7.30;;
23270;SDS011;11804;51.118;17.058;2022-12-07T15:58:50;12.13;;;7.60;;
23270;SDS011;11804;51.118;17.058;2022-12-07T16:01:18;9.73;;;6.90;;
23270;SDS011;11804;51.118;17.058;2022-12-07T16:03:46;10.90;;;7.43;;
23270;SDS011;11804;51.118;17.058;2022-12-07T16:06:17;13.60;;;7.63;;
23270;SDS011;11804;51.118;17.058;2022-12-07T16:08:45;10.57;;;7.27;;
23270;SDS011;11804;51.118;17.058;2022-12-07T16:11:13;13.03;;;7.53;;
23270;SDS011;11804;51.118;17.058;2022-12-07T16:13:41;14.27;;;8.07;;
23270;SDS011;11804;51.118;17.058;2022-12-07T16:16:12;10.07;;;7.00;;
23270;SDS011;11804;51.118;17.058;2022-12-07T16:18:42;11.23;;;7.37;;
23270;SDS011;11804;51.118;17.058;2022-12-07T16:21:13;14.47;;;8.60;;
23270;SDS011;11804;51.118;17.058;2022-12-07T16:23:41;14.17;;;7.97;;
23270;SDS011;11804;51.118;17.058;2022-12-07T16:26:14;11.27;;;7.80;;
23270;SDS011;11804;51.118;17.058;2022-12-07T16:28:43;12.47;;;7.93;;
23270;SDS011;11804;51.118;17.058;2022-12-07T16:31:12;13.57;;;8.10;;
23270;SDS011;11804;51.118;17.058;2022-12-07T16:33:41;13.27;;;7.93;;
23270;SDS011;11804;51.118;17.058;2022-12-07T16:36:10;12.23;;;7.63;;
23270;SDS011;11804;51.118;17.058;2022-12-07T16:38:41;15.17;;;8.53;;
23270;SDS011;11804;51.118;17.058;2022-12-07T16:41:09;14.60;;;8.83;;
23270;SDS011;11804;51.118;17.058;2022-12-07T16:43:37;14.30;;;8.53;;
23270;SDS011;11804;51.118;17.058;2022-12-07T16:46:05;13.23;;;8.47;;
23270;SDS011;11804;51.118;17.058;2022-12-07T16:48:36;13.90;;;7.43;;
23270;SDS011;11804;51.118;17.058;2022-12-07T16:51:05;11.07;;;7.43;;
23270;SDS011;11804;51.118;17.058;2022-12-07T16:53:35;14.00;;;7.47;;
23270;SDS011;11804;51.118;17.058;2022-12-07T16:56:09;13.93;;;7.93;;
23270;SDS011;11804;51.118;17.058;2022-12-07T16:58:47;11.70;;;7.13;;
23270;SDS011;11804;51.118;17.058;2022-12-07T17:01:17;11.60;;;7.20;;
23270;SDS011;11804;51.118;17.058;2022-12-07T17:03:48;10.70;;;6.80;;
23270;SDS011;11804;51.118;17.058;2022-12-07T17:06:16;14.63;;;7.53;;
23270;SDS011;11804;51.118;17.058;2022-12-07T17:09:00;12.53;;;7.43;;
23270;SDS011;11804;51.118;17.058;2022-12-07T17:11:18;11.43;;;7.40;;
23270;SDS011;11804;51.118;17.058;2022-12-07T17:13:48;12.10;;;7.50;;
23270;SDS011;11804;51.118;17.058;2022-12-07T17:16:34;12.23;;;7.30;;
23270;SDS011;11804;51.118;17.058;2022-12-07T17:19:05;14.57;;;7.63;;
23270;SDS011;11804;51.118;17.058;2022-12-07T17:21:34;10.57;;;7.17;;
23270;SDS011;11804;51.118;17.058;2022-12-07T17:24:03;15.13;;;7.83;;
23270;SDS011;11804;51.118;17.058;2022-12-07T17:26:35;14.43;;;7.70;;
23270;SDS011;11804;51.118;17.058;2022-12-07T17:29:03;12.03;;;7.77;;
23270;SDS011;11804;51.118;17.058;2022-12-07T17:31:33;13.47;;;7.83;;
23270;SDS011;11804;51.118;17.058;2022-12-07T17:34:01;14.17;;;7.10;;
23270;SDS011;11804;51.118;17.058;2022-12-07T17:36:30;15.47;;;7.63;;
23270;SDS011;11804;51.118;17.058;2022-12-07T17:38:58;14.73;;;8.37;;